sensor_id;sensor_type;location;lat;lon;timestamp;P1;durP1;ratioP1;P2;durP2;ratioP2
16660;SDS011;8444;52.012;5.048;2023-10-08T00:01:49;14.07;;;5.25;;
16660;SDS011;8444;52.012;5.048;2023-10-08T00:04:15;13.35;;;4.65;;
16660;SDS011;8444;52.012;5.048;2023-10-08T00:06:44;15.70;;;4.82;;
16660;SDS011;8444;52.012;5.048;2023-10-08T00:09:10;12.63;;;4.97;;
16660;SDS011;8444;52.012;5.048;2023-10-08T00:11:36;16.35;;;5.38;;
16660;SDS011;8444;52.012;5.048;2023-10-08T00:14:02;19.27;;;5.80;;
16660;SDS011;8444;52.012;5.048;2023-10-08T00:16:30;23.52;;;5.97;;
16660;SDS011;8444;52.012;5.048;2023-10-08T00:18:58;22.90;;;6.05;;
16660;SDS011;8444;52.012;5.048;2023-10-08T00:21:24;20.90;;;6.80;;
16660;SDS011;8444;52.012;5.048;2023-10-08T00:23:53;13.07;;;4.88;;
16660;SDS011;8444;52.012;5.048;2023-10-08T00:26:20;15.70;;;5.28;;
16660;SDS011;8444;52.012;5.048;2023-10-08T00:28:52;18.35;;;5.45;;
16660;SDS011;8444;52.012;5.048;2023-10-08T00:31:17;20.80;;;6.57;;
16660;SDS011;8444;52.012;5.048;2023-10-08T00:33:43;14.73;;;5.93;;
16660;SDS011;8444;52.012;5.048;2023-10-08T00:36:09;24.70;;;7.25;;
16660;SDS011;8444;52.012;5.048;2023-10-08T00:38:47;18.73;;;5.60;;
16660;SDS011;8444;52.012;5.048;2023-10-08T00:41:16;24.13;;;7.53;;
16660;SDS011;8444;52.012;5.048;2023-10-08T00:43:46;15.13;;;5.65;;
16660;SDS011;8444;52.012;5.048;2023-10-08T00:46:12;17.25;;;5.10;;
16660;SDS011;8444;52.012;5.048;2023-10-08T00:48:53;16.95;;;6.40;;
16660;SDS011;8444;52.012;5.048;2023-10-08T00:51:21;15.95;;;5.45;;
16660;SDS011;8444;52.012;5.048;2023-10-08T00:54:03;18.08;;;6.63;;
16660;SDS011;8444;52.012;5.048;2023-10-08T00:56:32;18.80;;;6.10;;
16660;SDS011;8444;52.012;5.048;2023-10-08T00:59:16;13.48;;;5.72;;
16660;SDS011;8444;52.012;5.048;2023-10-08T01:01:49;13.95;;;6.18;;
16660;SDS011;8444;52.012;5.048;2023-10-08T01:06:42;20.67;;;6.28;;
16660;SDS011;8444;52.012;5.048;2023-10-08T01:09:08;15.23;;;5.00;;
16660;SDS011;8444;52.012;5.048;2023-10-08T01:12:12;15.63;;;6.03;;
16660;SDS011;8444;52.012;5.048;2023-10-08T01:14:43;13.52;;;5.75;;
16660;SDS011;8444;52.012;5.048;2023-10-08T01:17:09;23.73;;;6.60;;
16660;SDS011;8444;52.012;5.048;2023-10-08T01:19:35;16.42;;;4.40;;
16660;SDS011;8444;52.012;5.048;2023-10-08T01:22:05;16.85;;;5.82;;
16660;SDS011;8444;52.012;5.048;2023-10-08T01:24:32;20.38;;;5.93;;
16660;SDS011;8444;52.012;5.048;2023-10-08T01:26:59;20.90;;;5.88;;
16660;SDS011;8444;52.012;5.048;2023-10-08T01:29:25;20.73;;;5.65;;
16660;SDS011;8444;52.012;5.048;2023-10-08T01:31:53;16.05;;;4.82;;
16660;SDS011;8444;52.012;5.048;2023-10-08T01:34:18;18.98;;;5.53;;
16660;SDS011;8444;52.012;5.048;2023-10-08T01:36:44;14.45;;;5.22;;
16660;SDS011;8444;52.012;5.048;2023-10-08T01:39:10;11.07;;;4.20;;
16660;SDS011;8444;52.012;5.048;2023-10-08T01:41:41;12.35;;;6.20;;
16660;SDS011;8444;52.012;5.048;2023-10-08T01:44:06;17.15;;;6.25;;
16660;SDS011;8444;52.012;5.048;2023-10-08T01:46:33;12.13;;;4.95;;
16660;SDS011;8444;52.012;5.048;2023-10-08T01:48:59;16.15;;;5.25;;
16660;SDS011;8444;52.012;5.048;2023-10-08T01:51:38;12.50;;;5.13;;
16660;SDS011;8444;52.012;5.048;2023-10-08T01:54:04;13.50;;;5.47;;
16660;SDS011;8444;52.012;5.048;2023-10-08T01:56:39;15.50;;;6.30;;
16660;SDS011;8444;52.012;5.048;2023-10-08T01:59:09;15.10;;;5.78;;
16660;SDS011;8444;52.012;5.048;2023-10-08T02:01:35;13.05;;;5.25;;
16660;SDS011;8444;52.012;5.048;2023-10-08T02:04:00;8.30;;;4.75;;
16660;SDS011;8444;52.012;5.048;2023-10-08T02:06:25;18.90;;;6.50;;
16660;SDS011;8444;52.012;5.048;2023-10-08T02:08:50;10.18;;;5.45;;
16660;SDS011;8444;52.012;5.048;2023-10-08T02:11:16;21.45;;;5.97;;
16660;SDS011;8444;52.012;5.048;2023-10-08T02:13:41;21.90;;;6.85;;
16660;SDS011;8444;52.012;5.048;2023-10-08T02:16:07;12.82;;;5.38;;
16660;SDS011;8444;52.012;5.048;2023-10-08T02:18:32;15.15;;;6.15;;
16660;SDS011;8444;52.012;5.048;2023-10-08T02:20:57;17.42;;;6.25;;
16660;SDS011;8444;52.012;5.048;2023-10-08T02:23:23;11.77;;;6.38;;
16660;SDS011;8444;52.012;5.048;2023-10-08T02:25:49;18.08;;;6.40;;
16660;SDS011;8444;52.012;5.048;2023-10-08T02:28:14;17.60;;;6.13;;
16660;SDS011;8444;52.012;5.048;2023-10-08T02:30:45;12.20;;;5.72;;
16660;SDS011;8444;52.012;5.048;2023-10-08T02:33:11;17.55;;;6.32;;
16660;SDS011;8444;52.012;5.048;2023-10-08T02:35:43;13.68;;;5.20;;
16660;SDS011;8444;52.012;5.048;2023-10-08T02:38:12;11.35;;;6.50;;
16660;SDS011;8444;52.012;5.048;2023-10-08T02:40:38;19.63;;;6.30;;
16660;SDS011;8444;52.012;5.048;2023-10-08T02:43:09;13.25;;;5.40;;
16660;SDS011;8444;52.012;5.048;2023-10-08T02:45:36;19.05;;;7.03;;
16660;SDS011;8444;52.012;5.048;2023-10-08T02:48:04;21.58;;;7.05;;
16660;SDS011;8444;52.012;5.048;2023-10-08T02:50:36;12.30;;;5.97;;
16660;SDS011;8444;52.012;5.048;2023-10-08T02:53:02;16.80;;;6.93;;
16660;SDS011;8444;52.012;5.048;2023-10-08T02:55:35;19.77;;;6.72;;
16660;SDS011;8444;52.012;5.048;2023-10-08T02:58:01;15.68;;;6.85;;
16660;SDS011;8444;52.012;5.048;2023-10-08T03:00:29;20.42;;;6.15;;
16660;SDS011;8444;52.012;5.048;2023-10-08T03:02:57;13.15;;;6.32;;
16660;SDS011;8444;52.012;5.048;2023-10-08T03:05:26;16.30;;;6.40;;
16660;SDS011;8444;52.012;5.048;2023-10-08T03:07:55;14.68;;;5.95;;
16660;SDS011;8444;52.012;5.048;2023-10-08T03:10:22;14.10;;;6.05;;
16660;SDS011;8444;52.012;5.048;2023-10-08T03:12:48;13.80;;;7.00;;
16660;SDS011;8444;52.012;5.048;2023-10-08T03:15:14;17.80;;;6.53;;
16660;SDS011;8444;52.012;5.048;2023-10-08T03:18:00;17.90;;;6.53;;
16660;SDS011;8444;52.012;5.048;2023-10-08T03:20:35;19.85;;;6.78;;
16660;SDS011;8444;52.012;5.048;2023-10-08T03:23:06;12.40;;;5.88;;
16660;SDS011;8444;52.012;5.048;2023-10-08T03:25:37;19.92;;;7.03;;
16660;SDS011;8444;52.012;5.048;2023-10-08T03:28:09;20.08;;;6.75;;
16660;SDS011;8444;52.012;5.048;2023-10-08T03:30:37;14.98;;;7.40;;
16660;SDS011;8444;52.012;5.048;2023-10-08T03:33:13;17.40;;;6.38;;
16660;SDS011;8444;52.012;5.048;2023-10-08T03:35:47;12.88;;;6.18;;
16660;SDS011;8444;52.012;5.048;2023-10-08T03:38:12;13.30;;;7.57;;
16660;SDS011;8444;52.012;5.048;2023-10-08T03:40:46;12.27;;;6.57;;
16660;SDS011;8444;52.012;5.048;2023-10-08T03:43:13;22.42;;;6.97;;
16660;SDS011;8444;52.012;5.048;2023-10-08T03:45:49;15.73;;;6.25;;
16660;SDS011;8444;52.012;5.048;2023-10-08T03:48:24;17.00;;;7.55;;
16660;SDS011;8444;52.012;5.048;2023-10-08T03:50:50;22.00;;;8.15;;
16660;SDS011;8444;52.012;5.048;2023-10-08T03:53:25;17.20;;;7.78;;
16660;SDS011;8444;52.012;5.048;2023-10-08T03:55:50;19.17;;;7.40;;
16660;SDS011;8444;52.012;5.048;2023-10-08T03:58:17;19.63;;;7.85;;
16660;SDS011;8444;52.012;5.048;2023-10-08T04:00:52;15.38;;;7.65;;
16660;SDS011;8444;52.012;5.048;2023-10-08T04:03:31;18.67;;;7.50;;
16660;SDS011;8444;52.012;5.048;2023-10-08T04:06:16;13.32;;;7.13;;
16660;SDS011;8444;52.012;5.048;2023-10-08T04:08:47;14.77;;;6.93;;
16660;SDS011;8444;52.012;5.048;2023-10-08T04:11:26;14.52;;;8.38;;
16660;SDS011;8444;52.012;5.048;2023-10-08T04:14:01;17.98;;;7.03;;
16660;SDS011;8444;52.012;5.048;2023-10-08T04:16:27;9.88;;;6.55;;
16660;SDS011;8444;52.012;5.048;2023-10-08T04:18:53;15.75;;;7.05;;
16660;SDS011;8444;52.012;5.048;2023-10-08T04:21:21;14.68;;;6.95;;
16660;SDS011;8444;52.012;5.048;2023-10-08T04:23:47;14.90;;;6.95;;
16660;SDS011;8444;52.012;5.048;2023-10-08T04:26:18;16.00;;;7.10;;
16660;SDS011;8444;52.012;5.048;2023-10-08T04:28:48;17.65;;;6.47;;
16660;SDS011;8444;52.012;5.048;2023-10-08T04:31:14;18.02;;;6.97;;
16660;SDS011;8444;52.012;5.048;2023-10-08T04:33:41;15.68;;;7.85;;
16660;SDS011;8444;52.012;5.048;2023-10-08T04:36:06;15.45;;;7.15;;
16660;SDS011;8444;52.012;5.048;2023-10-08T04:38:33;13.77;;;6.90;;
16660;SDS011;8444;52.012;5.048;2023-10-08T04:41:04;16.35;;;8.07;;
16660;SDS011;8444;52.012;5.048;2023-10-08T04:43:34;13.48;;;7.38;;
16660;SDS011;8444;52.012;5.048;2023-10-08T04:46:02;14.85;;;7.75;;
16660;SDS011;8444;52.012;5.048;2023-10-08T04:48:44;21.17;;;8.38;;
16660;SDS011;8444;52.012;5.048;2023-10-08T04:51:09;21.83;;;7.68;;
16660;SDS011;8444;52.012;5.048;2023-10-08T04:53:37;21.98;;;8.85;;
16660;SDS011;8444;52.012;5.048;2023-10-08T04:56:09;20.35;;;9.35;;
16660;SDS011;8444;52.012;5.048;2023-10-08T04:58:44;23.92;;;9.48;;
16660;SDS011;8444;52.012;5.048;2023-10-08T05:01:13;22.40;;;9.30;;
16660;SDS011;8444;52.012;5.048;2023-10-08T05:04:03;14.32;;;8.07;;
16660;SDS011;8444;52.012;5.048;2023-10-08T05:06:29;19.38;;;9.27;;
16660;SDS011;8444;52.012;5.048;2023-10-08T05:08:58;18.90;;;9.43;;
16660;SDS011;8444;52.012;5.048;2023-10-08T05:11:23;14.45;;;7.80;;
16660;SDS011;8444;52.012;5.048;2023-10-08T05:14:07;19.98;;;9.15;;
16660;SDS011;8444;52.012;5.048;2023-10-08T05:16:41;14.68;;;8.75;;
16660;SDS011;8444;52.012;5.048;2023-10-08T05:19:25;17.48;;;7.85;;
16660;SDS011;8444;52.012;5.048;2023-10-08T05:22:11;16.25;;;7.60;;
16660;SDS011;8444;52.012;5.048;2023-10-08T05:24:46;15.27;;;8.85;;
16660;SDS011;8444;52.012;5.048;2023-10-08T05:27:31;16.83;;;6.68;;
16660;SDS011;8444;52.012;5.048;2023-10-08T05:30:06;27.80;;;9.35;;
16660;SDS011;8444;52.012;5.048;2023-10-08T05:32:41;16.55;;;7.60;;
16660;SDS011;8444;52.012;5.048;2023-10-08T05:35:30;20.88;;;7.72;;
16660;SDS011;8444;52.012;5.048;2023-10-08T05:38:03;15.57;;;7.80;;
16660;SDS011;8444;52.012;5.048;2023-10-08T05:40:38;24.67;;;10.48;;
16660;SDS011;8444;52.012;5.048;2023-10-08T05:43:30;20.25;;;7.45;;
16660;SDS011;8444;52.012;5.048;2023-10-08T05:46:05;17.65;;;7.85;;
16660;SDS011;8444;52.012;5.048;2023-10-08T05:51:38;19.80;;;8.57;;
16660;SDS011;8444;52.012;5.048;2023-10-08T05:54:12;23.67;;;8.40;;
16660;SDS011;8444;52.012;5.048;2023-10-08T05:57:00;20.92;;;9.43;;
16660;SDS011;8444;52.012;5.048;2023-10-08T05:59:31;26.75;;;8.98;;
16660;SDS011;8444;52.012;5.048;2023-10-08T06:02:15;24.30;;;8.23;;
16660;SDS011;8444;52.012;5.048;2023-10-08T06:05:08;32.58;;;8.98;;
16660;SDS011;8444;52.012;5.048;2023-10-08T06:07:37;20.58;;;8.00;;
16660;SDS011;8444;52.012;5.048;2023-10-08T06:10:16;22.95;;;8.43;;
16660;SDS011;8444;52.012;5.048;2023-10-08T06:15:47;27.95;;;7.40;;
16660;SDS011;8444;52.012;5.048;2023-10-08T06:18:22;23.48;;;7.55;;
16660;SDS011;8444;52.012;5.048;2023-10-08T06:20:51;30.65;;;7.55;;
16660;SDS011;8444;52.012;5.048;2023-10-08T06:23:19;20.77;;;6.50;;
16660;SDS011;8444;52.012;5.048;2023-10-08T06:25:46;17.95;;;4.85;;
16660;SDS011;8444;52.012;5.048;2023-10-08T06:28:14;15.65;;;4.30;;
16660;SDS011;8444;52.012;5.048;2023-10-08T06:30:41;17.30;;;4.55;;
16660;SDS011;8444;52.012;5.048;2023-10-08T06:33:09;12.93;;;4.07;;
16660;SDS011;8444;52.012;5.048;2023-10-08T06:35:35;16.40;;;4.93;;
16660;SDS011;8444;52.012;5.048;2023-10-08T06:38:00;8.02;;;3.90;;
16660;SDS011;8444;52.012;5.048;2023-10-08T06:40:32;15.88;;;4.40;;
16660;SDS011;8444;52.012;5.048;2023-10-08T06:43:00;11.10;;;4.10;;
16660;SDS011;8444;52.012;5.048;2023-10-08T06:45:36;11.65;;;4.20;;
16660;SDS011;8444;52.012;5.048;2023-10-08T06:48:01;18.42;;;5.47;;
16660;SDS011;8444;52.012;5.048;2023-10-08T06:50:31;16.27;;;6.00;;
16660;SDS011;8444;52.012;5.048;2023-10-08T06:52:56;13.88;;;5.50;;
16660;SDS011;8444;52.012;5.048;2023-10-08T06:55:22;12.55;;;6.25;;
16660;SDS011;8444;52.012;5.048;2023-10-08T06:57:49;17.05;;;6.38;;
16660;SDS011;8444;52.012;5.048;2023-10-08T07:00:15;18.33;;;4.38;;
16660;SDS011;8444;52.012;5.048;2023-10-08T07:03:00;20.75;;;5.03;;
16660;SDS011;8444;52.012;5.048;2023-10-08T07:05:26;12.63;;;5.85;;
16660;SDS011;8444;52.012;5.048;2023-10-08T07:07:54;14.82;;;5.18;;
16660;SDS011;8444;52.012;5.048;2023-10-08T07:10:19;18.50;;;4.70;;
16660;SDS011;8444;52.012;5.048;2023-10-08T07:12:45;15.43;;;5.15;;
16660;SDS011;8444;52.012;5.048;2023-10-08T07:15:11;10.75;;;2.97;;
16660;SDS011;8444;52.012;5.048;2023-10-08T07:17:38;8.70;;;2.83;;
16660;SDS011;8444;52.012;5.048;2023-10-08T07:20:05;8.00;;;2.80;;
16660;SDS011;8444;52.012;5.048;2023-10-08T07:22:38;7.78;;;2.78;;
16660;SDS011;8444;52.012;5.048;2023-10-08T07:25:04;11.00;;;2.33;;
16660;SDS011;8444;52.012;5.048;2023-10-08T07:27:33;5.97;;;2.15;;
16660;SDS011;8444;52.012;5.048;2023-10-08T07:30:02;9.10;;;2.45;;
16660;SDS011;8444;52.012;5.048;2023-10-08T07:32:35;8.10;;;1.83;;
16660;SDS011;8444;52.012;5.048;2023-10-08T07:35:03;5.88;;;2.08;;
16660;SDS011;8444;52.012;5.048;2023-10-08T07:37:58;9.40;;;2.42;;
16660;SDS011;8444;52.012;5.048;2023-10-08T07:40:23;8.38;;;2.22;;
16660;SDS011;8444;52.012;5.048;2023-10-08T07:42:54;6.72;;;1.90;;
16660;SDS011;8444;52.012;5.048;2023-10-08T07:45:19;9.52;;;2.53;;
16660;SDS011;8444;52.012;5.048;2023-10-08T07:47:46;8.80;;;2.00;;
16660;SDS011;8444;52.012;5.048;2023-10-08T07:50:12;4.75;;;1.65;;
16660;SDS011;8444;52.012;5.048;2023-10-08T07:52:38;7.55;;;2.28;;
16660;SDS011;8444;52.012;5.048;2023-10-08T07:55:03;5.43;;;1.98;;
16660;SDS011;8444;52.012;5.048;2023-10-08T07:57:32;11.18;;;2.47;;
16660;SDS011;8444;52.012;5.048;2023-10-08T07:59:58;5.90;;;2.20;;
16660;SDS011;8444;52.012;5.048;2023-10-08T08:02:43;9.40;;;2.10;;
16660;SDS011;8444;52.012;5.048;2023-10-08T08:05:08;6.85;;;2.13;;
16660;SDS011;8444;52.012;5.048;2023-10-08T08:07:33;12.48;;;2.42;;
16660;SDS011;8444;52.012;5.048;2023-10-08T08:09:58;6.28;;;2.05;;
16660;SDS011;8444;52.012;5.048;2023-10-08T08:12:24;8.48;;;2.83;;
16660;SDS011;8444;52.012;5.048;2023-10-08T08:14:53;4.75;;;2.45;;
16660;SDS011;8444;52.012;5.048;2023-10-08T08:17:19;12.60;;;2.50;;
16660;SDS011;8444;52.012;5.048;2023-10-08T08:19:45;10.45;;;2.30;;
16660;SDS011;8444;52.012;5.048;2023-10-08T08:22:14;4.15;;;1.77;;
16660;SDS011;8444;52.012;5.048;2023-10-08T08:24:56;8.35;;;1.80;;
16660;SDS011;8444;52.012;5.048;2023-10-08T08:27:30;4.55;;;1.90;;
16660;SDS011;8444;52.012;5.048;2023-10-08T08:29:58;6.18;;;2.10;;
16660;SDS011;8444;52.012;5.048;2023-10-08T08:32:34;4.80;;;1.88;;
16660;SDS011;8444;52.012;5.048;2023-10-08T08:35:00;6.82;;;2.65;;
16660;SDS011;8444;52.012;5.048;2023-10-08T08:37:25;7.18;;;2.90;;
16660;SDS011;8444;52.012;5.048;2023-10-08T08:39:57;9.70;;;3.30;;
16660;SDS011;8444;52.012;5.048;2023-10-08T08:42:22;6.93;;;2.20;;
16660;SDS011;8444;52.012;5.048;2023-10-08T08:44:48;8.20;;;2.95;;
16660;SDS011;8444;52.012;5.048;2023-10-08T08:47:16;5.97;;;3.15;;
16660;SDS011;8444;52.012;5.048;2023-10-08T08:49:43;8.88;;;2.80;;
16660;SDS011;8444;52.012;5.048;2023-10-08T08:52:08;8.93;;;2.72;;
16660;SDS011;8444;52.012;5.048;2023-10-08T08:54:34;7.32;;;2.65;;
16660;SDS011;8444;52.012;5.048;2023-10-08T08:57:02;8.45;;;2.60;;
16660;SDS011;8444;52.012;5.048;2023-10-08T08:59:29;9.18;;;3.38;;
16660;SDS011;8444;52.012;5.048;2023-10-08T09:01:56;8.55;;;2.83;;
16660;SDS011;8444;52.012;5.048;2023-10-08T09:04:29;9.93;;;2.75;;
16660;SDS011;8444;52.012;5.048;2023-10-08T09:06:55;9.68;;;3.15;;
16660;SDS011;8444;52.012;5.048;2023-10-08T09:09:20;8.10;;;2.90;;
16660;SDS011;8444;52.012;5.048;2023-10-08T09:11:49;4.68;;;2.35;;
16660;SDS011;8444;52.012;5.048;2023-10-08T09:14:21;6.53;;;2.38;;
16660;SDS011;8444;52.012;5.048;2023-10-08T09:16:50;10.20;;;2.85;;
16660;SDS011;8444;52.012;5.048;2023-10-08T09:19:16;5.68;;;2.75;;
16660;SDS011;8444;52.012;5.048;2023-10-08T09:24:33;15.88;;;3.22;;
16660;SDS011;8444;52.012;5.048;2023-10-08T09:26:59;5.20;;;2.55;;
16660;SDS011;8444;52.012;5.048;2023-10-08T09:29:25;7.57;;;3.25;;
16660;SDS011;8444;52.012;5.048;2023-10-08T09:31:58;7.38;;;2.95;;
16660;SDS011;8444;52.012;5.048;2023-10-08T09:34:29;7.95;;;2.75;;
16660;SDS011;8444;52.012;5.048;2023-10-08T09:36:55;6.50;;;2.72;;
16660;SDS011;8444;52.012;5.048;2023-10-08T09:39:21;4.72;;;2.13;;
16660;SDS011;8444;52.012;5.048;2023-10-08T09:41:50;4.72;;;2.58;;
16660;SDS011;8444;52.012;5.048;2023-10-08T09:44:18;7.47;;;2.97;;
16660;SDS011;8444;52.012;5.048;2023-10-08T09:46:44;4.38;;;2.97;;
16660;SDS011;8444;52.012;5.048;2023-10-08T09:49:12;5.53;;;2.00;;
16660;SDS011;8444;52.012;5.048;2023-10-08T09:51:39;4.47;;;2.45;;
16660;SDS011;8444;52.012;5.048;2023-10-08T09:54:11;10.27;;;2.53;;
16660;SDS011;8444;52.012;5.048;2023-10-08T09:56:40;6.18;;;1.90;;
16660;SDS011;8444;52.012;5.048;2023-10-08T09:59:06;5.88;;;3.05;;
16660;SDS011;8444;52.012;5.048;2023-10-08T10:01:34;2.83;;;1.83;;
16660;SDS011;8444;52.012;5.048;2023-10-08T10:03:59;7.60;;;2.88;;
16660;SDS011;8444;52.012;5.048;2023-10-08T10:06:25;5.30;;;1.95;;
16660;SDS011;8444;52.012;5.048;2023-10-08T10:08:51;3.45;;;2.25;;
16660;SDS011;8444;52.012;5.048;2023-10-08T10:11:17;7.10;;;2.65;;
16660;SDS011;8444;52.012;5.048;2023-10-08T10:13:43;4.88;;;2.15;;
16660;SDS011;8444;52.012;5.048;2023-10-08T10:16:13;3.67;;;1.88;;
16660;SDS011;8444;52.012;5.048;2023-10-08T10:18:38;4.70;;;2.33;;
16660;SDS011;8444;52.012;5.048;2023-10-08T10:23:38;5.95;;;2.65;;
16660;SDS011;8444;52.012;5.048;2023-10-08T10:31:52;3.58;;;2.30;;
16660;SDS011;8444;52.012;5.048;2023-10-08T10:34:19;7.75;;;3.10;;
16660;SDS011;8444;52.012;5.048;2023-10-08T10:36:45;8.80;;;3.08;;
16660;SDS011;8444;52.012;5.048;2023-10-08T10:39:14;7.55;;;2.78;;
16660;SDS011;8444;52.012;5.048;2023-10-08T10:41:51;6.15;;;2.80;;
16660;SDS011;8444;52.012;5.048;2023-10-08T10:44:16;7.07;;;3.15;;
16660;SDS011;8444;52.012;5.048;2023-10-08T10:46:42;8.95;;;3.10;;
16660;SDS011;8444;52.012;5.048;2023-10-08T10:49:08;9.10;;;3.40;;
16660;SDS011;8444;52.012;5.048;2023-10-08T10:51:56;4.57;;;2.78;;
16660;SDS011;8444;52.012;5.048;2023-10-08T10:54:25;6.05;;;3.03;;
16660;SDS011;8444;52.012;5.048;2023-10-08T10:56:51;7.30;;;3.45;;
16660;SDS011;8444;52.012;5.048;2023-10-08T10:59:29;7.13;;;2.95;;
16660;SDS011;8444;52.012;5.048;2023-10-08T11:02:02;7.40;;;3.30;;
16660;SDS011;8444;52.012;5.048;2023-10-08T11:04:33;5.75;;;3.50;;
16660;SDS011;8444;52.012;5.048;2023-10-08T11:07:10;7.10;;;3.30;;
16660;SDS011;8444;52.012;5.048;2023-10-08T11:09:37;9.70;;;3.75;;
16660;SDS011;8444;52.012;5.048;2023-10-08T11:12:09;5.95;;;3.65;;
16660;SDS011;8444;52.012;5.048;2023-10-08T11:14:40;6.75;;;3.83;;
16660;SDS011;8444;52.012;5.048;2023-10-08T11:17:44;7.15;;;4.32;;
16660;SDS011;8444;52.012;5.048;2023-10-08T11:20:02;5.20;;;3.97;;
16660;SDS011;8444;52.012;5.048;2023-10-08T11:22:41;8.70;;;4.10;;
16660;SDS011;8444;52.012;5.048;2023-10-08T11:25:20;8.27;;;3.78;;
16660;SDS011;8444;52.012;5.048;2023-10-08T11:27:48;5.65;;;3.80;;
16660;SDS011;8444;52.012;5.048;2023-10-08T11:30:13;10.70;;;4.40;;
16660;SDS011;8444;52.012;5.048;2023-10-08T11:32:42;6.65;;;3.72;;
16660;SDS011;8444;52.012;5.048;2023-10-08T11:35:14;5.38;;;3.53;;
16660;SDS011;8444;52.012;5.048;2023-10-08T11:37:46;8.10;;;4.13;;
16660;SDS011;8444;52.012;5.048;2023-10-08T11:40:25;5.28;;;3.72;;
16660;SDS011;8444;52.012;5.048;2023-10-08T11:42:57;5.55;;;3.20;;
16660;SDS011;8444;52.012;5.048;2023-10-08T11:45:24;5.55;;;3.50;;
16660;SDS011;8444;52.012;5.048;2023-10-08T11:47:50;4.25;;;2.88;;
16660;SDS011;8444;52.012;5.048;2023-10-08T11:50:25;4.18;;;3.22;;
16660;SDS011;8444;52.012;5.048;2023-10-08T11:53:04;5.70;;;3.25;;
16660;SDS011;8444;52.012;5.048;2023-10-08T11:55:33;4.32;;;3.03;;
16660;SDS011;8444;52.012;5.048;2023-10-08T11:58:04;8.73;;;2.80;;
16660;SDS011;8444;52.012;5.048;2023-10-08T12:00:38;3.90;;;2.47;;
16660;SDS011;8444;52.012;5.048;2023-10-08T12:03:10;5.45;;;2.80;;
16660;SDS011;8444;52.012;5.048;2023-10-08T12:05:36;5.45;;;2.20;;
16660;SDS011;8444;52.012;5.048;2023-10-08T12:08:04;3.58;;;2.10;;
16660;SDS011;8444;52.012;5.048;2023-10-08T12:10:33;5.40;;;2.15;;
16660;SDS011;8444;52.012;5.048;2023-10-08T12:12:59;5.88;;;2.35;;
16660;SDS011;8444;52.012;5.048;2023-10-08T12:15:24;8.40;;;2.67;;
16660;SDS011;8444;52.012;5.048;2023-10-08T12:17:59;19.10;;;3.53;;
16660;SDS011;8444;52.012;5.048;2023-10-08T12:20:36;3.53;;;2.08;;
16660;SDS011;8444;52.012;5.048;2023-10-08T12:23:02;2.97;;;1.73;;
16660;SDS011;8444;52.012;5.048;2023-10-08T12:25:27;7.03;;;1.95;;
16660;SDS011;8444;52.012;5.048;2023-10-08T12:27:53;4.40;;;2.20;;
16660;SDS011;8444;52.012;5.048;2023-10-08T12:30:18;5.63;;;2.50;;
16660;SDS011;8444;52.012;5.048;2023-10-08T12:32:43;7.65;;;2.33;;
16660;SDS011;8444;52.012;5.048;2023-10-08T12:35:11;7.88;;;2.38;;
16660;SDS011;8444;52.012;5.048;2023-10-08T12:37:39;4.90;;;2.25;;
16660;SDS011;8444;52.012;5.048;2023-10-08T12:40:06;2.97;;;2.15;;
16660;SDS011;8444;52.012;5.048;2023-10-08T12:42:47;4.78;;;2.83;;
16660;SDS011;8444;52.012;5.048;2023-10-08T12:45:13;4.82;;;2.03;;
16660;SDS011;8444;52.012;5.048;2023-10-08T12:47:38;4.30;;;1.77;;
16660;SDS011;8444;52.012;5.048;2023-10-08T12:50:04;3.50;;;1.85;;
16660;SDS011;8444;52.012;5.048;2023-10-08T12:52:32;5.20;;;2.38;;
16660;SDS011;8444;52.012;5.048;2023-10-08T12:55:00;5.22;;;2.35;;
16660;SDS011;8444;52.012;5.048;2023-10-08T12:57:29;5.45;;;2.80;;
16660;SDS011;8444;52.012;5.048;2023-10-08T12:59:58;4.50;;;3.05;;
16660;SDS011;8444;52.012;5.048;2023-10-08T13:02:24;5.85;;;2.40;;
16660;SDS011;8444;52.012;5.048;2023-10-08T13:04:53;4.05;;;2.10;;
16660;SDS011;8444;52.012;5.048;2023-10-08T13:07:20;7.28;;;2.42;;
16660;SDS011;8444;52.012;5.048;2023-10-08T13:09:46;4.57;;;1.95;;
16660;SDS011;8444;52.012;5.048;2023-10-08T13:12:12;4.57;;;2.22;;
16660;SDS011;8444;52.012;5.048;2023-10-08T13:14:39;5.13;;;2.20;;
16660;SDS011;8444;52.012;5.048;2023-10-08T13:17:04;7.32;;;2.75;;
16660;SDS011;8444;52.012;5.048;2023-10-08T13:19:35;7.38;;;2.53;;
16660;SDS011;8444;52.012;5.048;2023-10-08T13:22:00;5.78;;;2.40;;
16660;SDS011;8444;52.012;5.048;2023-10-08T13:24:26;6.43;;;2.47;;
16660;SDS011;8444;52.012;5.048;2023-10-08T13:26:53;4.75;;;2.10;;
16660;SDS011;8444;52.012;5.048;2023-10-08T13:29:18;2.70;;;1.88;;
16660;SDS011;8444;52.012;5.048;2023-10-08T13:31:44;5.00;;;2.47;;
16660;SDS011;8444;52.012;5.048;2023-10-08T13:34:10;4.90;;;2.50;;
16660;SDS011;8444;52.012;5.048;2023-10-08T13:36:37;7.20;;;2.20;;
16660;SDS011;8444;52.012;5.048;2023-10-08T13:39:03;6.55;;;2.38;;
16660;SDS011;8444;52.012;5.048;2023-10-08T13:41:28;4.95;;;2.08;;
16660;SDS011;8444;52.012;5.048;2023-10-08T13:43:54;6.65;;;2.75;;
16660;SDS011;8444;52.012;5.048;2023-10-08T13:46:30;5.07;;;3.00;;
16660;SDS011;8444;52.012;5.048;2023-10-08T13:48:56;6.35;;;2.60;;
16660;SDS011;8444;52.012;5.048;2023-10-08T13:51:23;6.72;;;2.80;;
16660;SDS011;8444;52.012;5.048;2023-10-08T13:53:55;5.32;;;2.92;;
16660;SDS011;8444;52.012;5.048;2023-10-08T13:56:24;5.93;;;2.70;;
16660;SDS011;8444;52.012;5.048;2023-10-08T13:58:51;4.65;;;2.40;;
16660;SDS011;8444;52.012;5.048;2023-10-08T14:01:21;6.28;;;2.90;;
16660;SDS011;8444;52.012;5.048;2023-10-08T14:03:49;4.57;;;3.28;;
16660;SDS011;8444;52.012;5.048;2023-10-08T14:06:18;5.78;;;3.40;;
16660;SDS011;8444;52.012;5.048;2023-10-08T14:08:45;9.73;;;4.28;;
16660;SDS011;8444;52.012;5.048;2023-10-08T14:11:16;6.55;;;3.17;;
16660;SDS011;8444;52.012;5.048;2023-10-08T14:13:43;5.38;;;3.33;;
16660;SDS011;8444;52.012;5.048;2023-10-08T14:16:09;4.20;;;2.87;;
16660;SDS011;8444;52.012;5.048;2023-10-08T14:18:36;3.55;;;2.88;;
16660;SDS011;8444;52.012;5.048;2023-10-08T14:21:08;7.65;;;3.45;;
16660;SDS011;8444;52.012;5.048;2023-10-08T14:23:36;7.40;;;3.40;;
16660;SDS011;8444;52.012;5.048;2023-10-08T14:26:05;6.03;;;2.90;;
16660;SDS011;8444;52.012;5.048;2023-10-08T14:28:32;5.13;;;2.70;;
16660;SDS011;8444;52.012;5.048;2023-10-08T14:31:09;5.70;;;3.22;;
16660;SDS011;8444;52.012;5.048;2023-10-08T14:33:40;6.47;;;3.08;;
16660;SDS011;8444;52.012;5.048;2023-10-08T14:36:20;6.68;;;3.45;;
16660;SDS011;8444;52.012;5.048;2023-10-08T14:39:04;5.22;;;3.13;;
16660;SDS011;8444;52.012;5.048;2023-10-08T14:41:48;6.97;;;3.00;;
16660;SDS011;8444;52.012;5.048;2023-10-08T14:44:32;5.75;;;3.03;;
16660;SDS011;8444;52.012;5.048;2023-10-08T14:46:59;5.05;;;2.90;;
16660;SDS011;8444;52.012;5.048;2023-10-08T14:49:25;12.50;;;3.25;;
16660;SDS011;8444;52.012;5.048;2023-10-08T14:51:50;5.28;;;2.88;;
16660;SDS011;8444;52.012;5.048;2023-10-08T14:54:18;10.93;;;3.20;;
16660;SDS011;8444;52.012;5.048;2023-10-08T14:56:43;4.38;;;2.70;;
16660;SDS011;8444;52.012;5.048;2023-10-08T14:59:08;6.18;;;3.53;;
16660;SDS011;8444;52.012;5.048;2023-10-08T15:01:34;6.10;;;3.40;;
16660;SDS011;8444;52.012;5.048;2023-10-08T15:03:59;7.80;;;3.92;;
16660;SDS011;8444;52.012;5.048;2023-10-08T15:06:29;8.57;;;3.35;;
16660;SDS011;8444;52.012;5.048;2023-10-08T15:08:55;8.15;;;3.53;;
16660;SDS011;8444;52.012;5.048;2023-10-08T15:11:21;15.50;;;3.95;;
16660;SDS011;8444;52.012;5.048;2023-10-08T15:13:46;8.15;;;4.00;;
16660;SDS011;8444;52.012;5.048;2023-10-08T15:16:12;4.25;;;2.88;;
16660;SDS011;8444;52.012;5.048;2023-10-08T15:18:38;5.47;;;2.83;;
16660;SDS011;8444;52.012;5.048;2023-10-08T15:21:07;8.38;;;3.47;;
16660;SDS011;8444;52.012;5.048;2023-10-08T15:23:33;7.95;;;3.45;;
16660;SDS011;8444;52.012;5.048;2023-10-08T15:25:58;7.63;;;3.10;;
16660;SDS011;8444;52.012;5.048;2023-10-08T15:28:23;5.00;;;3.13;;
16660;SDS011;8444;52.012;5.048;2023-10-08T15:30:48;5.50;;;3.40;;